Time;durP1;ratioP1;P1;durP2;ratioP2;P2;SDS_P1;SDS_P2;PMS_P1;PMS_P2;Temp;Humidity;BMP_temperature;BMP_pressure;BME280_temperature;BME280_humidity;BME280_pressure;Samples;Min_cycle;Max_cycle;Signal;HPM_P1;HPM_P2
2021/08/19 00:01:05;;;;;;;7.95;3.00;;;18.50;99.90;;;;;;5107468;28;20169;-69
2021/08/19 00:03:31;;;;;;;7.63;3.15;;;18.40;99.90;;;;;;5107424;28;20189;-69
2021/08/19 00:05:56;;;;;;;7.30;2.83;;;18.30;99.90;;;;;;5107463;28;20174;-69
2021/08/19 00:08:22;;;;;;;8.05;3.30;;;18.40;99.90;;;;;;5104844;28;20215;-69
2021/08/19 00:10:48;;;;;;;8.13;3.75;;;18.40;99.90;;;;;;5107346;28;20522;-69
2021/08/19 00:13:13;;;;;;;6.53;3.13;;;18.30;99.90;;;;;;5107005;28;20444;-69
2021/08/19 00:15:39;;;;;;;7.05;3.20;;;18.30;99.90;;;;;;5107286;28;20163;-69
2021/08/19 00:18:05;;;;;;;6.53;3.35;;;18.40;99.90;;;;;;5104694;28;20152;-69
2021/08/19 00:20:32;;;;;;;9.38;3.30;;;18.60;99.90;;;;;;5106927;28;20184;-69
2021/08/19 00:22:59;;;;;;;7.63;3.30;;;18.40;99.90;;;;;;5107189;28;20175;-69
2021/08/19 00:25:25;;;;;;;3.20;2.67;;;18.30;99.90;;;;;;5106933;28;20250;-70
2021/08/19 00:27:51;;;;;;;7.53;3.08;;;18.30;99.90;;;;;;5119764;28;20167;-69
2021/08/19 00:30:17;;;;;;;7.05;3.20;;;18.40;99.90;;;;;;5122791;28;20231;-69
2021/08/19 00:32:42;;;;;;;8.05;2.83;;;18.40;99.90;;;;;;5106766;28;20172;-69
2021/08/19 00:35:09;;;;;;;5.15;2.88;;;18.70;99.90;;;;;;5106952;28;20194;-69
2021/08/19 00:37:34;;;;;;;10.02;3.33;;;18.70;99.90;;;;;;5105407;28;20164;-69
2021/08/19 00:40:02;;;;;;;6.45;2.80;;;18.60;99.90;;;;;;5105800;28;20151;-69
2021/08/19 00:42:28;;;;;;;4.93;2.63;;;18.50;99.90;;;;;;5106208;28;20160;-69
2021/08/19 00:44:53;;;;;;;6.15;2.97;;;18.30;99.90;;;;;;5106796;28;20176;-69
2021/08/19 00:47:19;;;;;;;5.60;3.17;;;18.20;99.90;;;;;;5107034;28;20163;-69
2021/08/19 00:49:45;;;;;;;9.70;2.75;;;18.20;99.90;;;;;;5103972;28;20185;-69
2021/08/19 00:52:13;;;;;;;11.13;3.47;;;18.30;99.90;;;;;;5106353;28;20171;-69
2021/08/19 00:54:39;;;;;;;11.00;3.10;;;18.30;99.90;;;;;;5106445;28;20229;-69
2021/08/19 00:57:06;;;;;;;10.23;3.35;;;18.20;99.90;;;;;;5106504;28;20155;-69
2021/08/19 00:59:39;;;;;;;7.70;3.10;;;18.20;99.90;;;;;;5103321;28;20167;-69
2021/08/19 01:02:09;;;;;;;8.13;3.63;;;18.10;99.90;;;;;;5106103;28;20179;-69
2021/08/19 01:04:42;;;;;;;6.55;3.60;;;18.10;99.90;;;;;;5106445;28;20670;-68
2021/08/19 01:07:11;;;;;;;6.93;3.22;;;18.20;99.90;;;;;;5106329;28;20219;-69
2021/08/19 01:09:37;;;;;;;13.18;4.00;;;18.20;99.90;;;;;;5103641;28;20168;-69
2021/08/19 01:12:09;;;;;;;10.55;3.75;;;18.20;99.90;;;;;;5122156;28;20266;-69
2021/08/19 01:14:35;;;;;;;11.23;3.88;;;18.10;99.90;;;;;;5105959;28;20190;-69
2021/08/19 01:17:08;;;;;;;6.50;4.00;;;18.10;99.90;;;;;;5121889;28;20166;-69
2021/08/19 01:19:35;;;;;;;7.25;3.70;;;18.10;99.90;;;;;;5103514;28;20166;-68
2021/08/19 01:22:00;;;;;;;5.57;4.30;;;18.10;99.90;;;;;;5106078;28;20173;-69
2021/08/19 01:24:26;;;;;;;8.18;4.05;;;18.20;99.90;;;;;;5106279;28;20171;-69
2021/08/19 01:26:54;;;;;;;5.32;4.07;;;18.20;99.90;;;;;;5121821;28;20639;-69
2021/08/19 01:29:19;;;;;;;6.10;4.63;;;18.20;99.90;;;;;;5103338;28;20254;-69
2021/08/19 01:32:03;;;;;;;9.52;4.20;;;18.20;99.90;;;;;;5105918;28;20245;-69
2021/08/19 01:34:30;;;;;;;7.57;4.65;;;18.30;99.90;;;;;;5105926;28;20226;-69
2021/08/19 01:36:56;;;;;;;9.80;4.82;;;18.20;99.90;;;;;;5105975;28;20166;-69
2021/08/19 01:39:22;;;;;;;8.25;4.75;;;18.20;99.90;;;;;;5103478;28;20197;-69
2021/08/19 01:41:48;;;;;;;11.68;5.28;;;18.10;99.90;;;;;;5105993;28;20156;-69
2021/08/19 01:44:14;;;;;;;10.70;5.20;;;18.10;99.90;;;;;;5105660;28;20174;-69
2021/08/19 01:46:40;;;;;;;10.00;4.90;;;18.00;99.90;;;;;;5105897;28;20159;-69
2021/08/19 01:49:06;;;;;;;15.30;5.90;;;18.00;99.90;;;;;;5103378;28;20190;-68
2021/08/19 01:51:33;;;;;;;12.88;5.32;;;18.20;99.90;;;;;;5105502;28;20195;-68
2021/08/19 01:54:00;;;;;;;7.35;5.00;;;18.30;99.90;;;;;;5121594;28;20191;-69
2021/08/19 01:56:26;;;;;;;9.18;5.00;;;18.10;99.90;;;;;;5105688;28;20163;-68
2021/08/19 01:58:53;;;;;;;11.05;5.57;;;18.10;99.90;;;;;;5102836;28;20174;-68
2021/08/19 02:01:20;;;;;;;12.75;5.13;;;18.20;99.90;;;;;;5106447;28;20194;-69
2021/08/19 02:03:46;;;;;;;7.90;5.15;;;18.20;99.90;;;;;;5109806;28;20640;-69
2021/08/19 02:06:12;;;;;;;9.75;5.07;;;18.20;99.90;;;;;;5109953;28;20171;-69
2021/08/19 02:08:38;;;;;;;9.55;5.07;;;18.30;99.90;;;;;;5106972;28;20253;-69
2021/08/19 02:11:03;;;;;;;8.82;5.30;;;18.30;99.90;;;;;;5109650;28;20192;-69
2021/08/19 02:13:29;;;;;;;12.73;5.95;;;18.20;99.90;;;;;;5109304;28;20178;-69
2021/08/19 02:15:55;;;;;;;9.63;5.88;;;18.00;99.90;;;;;;5109830;28;20205;-69
2021/08/19 02:18:20;;;;;;;8.18;5.00;;;18.00;99.90;;;;;;5107044;28;20187;-69
2021/08/19 02:20:46;;;;;;;9.32;5.22;;;18.20;99.90;;;;;;5109351;28;20159;-69
2021/08/19 02:23:12;;;;;;;9.43;5.20;;;18.20;99.90;;;;;;5109626;28;20212;-69
2021/08/19 02:25:37;;;;;;;9.90;5.70;;;18.10;99.90;;;;;;5109368;28;20167;-69
2021/08/19 02:28:03;;;;;;;12.65;5.30;;;18.00;99.90;;;;;;5106530;28;20178;-69
2021/08/19 02:30:29;;;;;;;10.13;5.57;;;18.10;99.90;;;;;;5109422;28;20174;-69
2021/08/19 02:32:57;;;;;;;12.38;5.70;;;18.10;99.90;;;;;;5109260;28;20202;-69
2021/08/19 02:35:24;;;;;;;17.38;5.75;;;18.00;99.90;;;;;;5109251;28;20223;-69
2021/08/19 02:37:50;;;;;;;15.02;5.88;;;18.00;99.90;;;;;;5106752;28;20372;-69
2021/08/19 02:40:16;;;;;;;12.85;5.90;;;18.00;99.90;;;;;;5109209;28;20246;-69
2021/08/19 02:42:41;;;;;;;18.02;6.05;;;18.20;99.90;;;;;;5108494;28;20198;-69
2021/08/19 02:45:07;;;;;;;12.05;6.25;;;18.20;99.90;;;;;;5109241;28;20179;-69
2021/08/19 02:47:33;;;;;;;11.20;5.93;;;18.10;99.90;;;;;;5107783;28;20658;-69
2021/08/19 02:49:58;;;;;;;19.80;5.53;;;18.10;99.90;;;;;;5107725;28;20171;-69
2021/08/19 02:52:24;;;;;;;13.75;5.90;;;18.10;99.90;;;;;;5108520;28;20175;-69
2021/08/19 02:54:51;;;;;;;10.90;6.15;;;18.00;99.90;;;;;;5109113;28;20201;-69
2021/08/19 02:57:16;;;;;;;11.90;6.22;;;18.00;99.90;;;;;;5108888;28;20159;-69
2021/08/19 02:59:42;;;;;;;16.98;6.00;;;17.90;99.90;;;;;;5105865;28;20305;-69
2021/08/19 03:02:08;;;;;;;9.77;5.57;;;18.10;99.90;;;;;;5108541;28;20167;-68
2021/08/19 03:04:33;;;;;;;13.40;6.25;;;18.10;99.90;;;;;;5108841;28;20155;-69
2021/08/19 03:06:59;;;;;;;15.90;5.90;;;18.10;99.90;;;;;;5108574;28;20628;-68
2021/08/19 03:09:25;;;;;;;10.77;5.32;;;17.90;99.90;;;;;;5105809;28;20187;-69
2021/08/19 03:11:51;;;;;;;16.90;6.07;;;18.10;99.90;;;;;;5108474;28;20170;-69
2021/08/19 03:14:17;;;;;;;9.55;5.13;;;18.00;99.90;;;;;;5108284;28;20225;-68
2021/08/19 03:16:43;;;;;;;9.15;4.70;;;18.00;99.90;;;;;;5108471;28;20171;-69
2021/08/19 03:19:09;;;;;;;10.00;5.68;;;18.00;99.90;;;;;;5105801;28;20159;-69
2021/08/19 03:21:36;;;;;;;10.43;5.18;;;18.00;99.90;;;;;;5108264;28;20250;-69
2021/08/19 03:24:03;;;;;;;9.43;4.97;;;18.00;99.90;;;;;;5124244;28;20256;-68
2021/08/19 03:26:31;;;;;;;10.80;5.18;;;18.20;99.90;;;;;;5108236;28;20155;-69
2021/08/19 03:28:57;;;;;;;8.90;5.25;;;18.10;99.90;;;;;;5105404;28;20176;-69
2021/08/19 03:31:25;;;;;;;10.98;5.60;;;18.10;99.90;;;;;;5108218;28;20197;-69
2021/08/19 03:33:50;;;;;;;9.63;5.15;;;18.00;99.90;;;;;;5108351;28;20191;-69
2021/08/19 03:36:16;;;;;;;10.32;5.10;;;18.00;99.90;;;;;;5108267;28;20198;-69
2021/08/19 03:38:43;;;;;;;10.82;4.85;;;17.90;99.90;;;;;;5105388;28;20172;-69
2021/08/19 03:41:09;;;;;;;10.40;4.88;;;17.80;99.90;;;;;;5107898;28;20179;-69
2021/08/19 03:43:35;;;;;;;11.90;4.88;;;17.70;99.90;;;;;;5107587;28;20168;-68
2021/08/19 03:46:01;;;;;;;9.13;4.93;;;17.70;99.90;;;;;;5108030;28;20196;-69
2021/08/19 03:48:26;;;;;;;9.15;4.75;;;17.60;99.90;;;;;;5105177;28;20167;-69
2021/08/19 03:50:52;;;;;;;11.77;4.70;;;17.70;99.90;;;;;;5107773;28;20152;-68
2021/08/19 03:53:18;;;;;;;13.30;5.47;;;17.90;99.90;;;;;;5123641;28;20660;-68
2021/08/19 03:55:44;;;;;;;12.35;4.53;;;17.70;99.90;;;;;;5107561;28;20194;-69
2021/08/19 03:58:10;;;;;;;16.08;5.15;;;17.70;99.90;;;;;;5104940;28;20168;-69
2021/08/19 04:00:35;;;;;;;11.98;5.05;;;17.80;99.90;;;;;;5107610;28;20162;-70
2021/08/19 04:03:01;;;;;;;8.68;4.88;;;17.90;99.90;;;;;;5107394;28;20197;-69
2021/08/19 04:05:26;;;;;;;10.52;4.72;;;17.90;99.90;;;;;;5107284;28;20202;-70
2021/08/19 04:07:52;;;;;;;10.57;5.00;;;17.90;99.90;;;;;;5120514;28;20345;-68
2021/08/19 04:10:18;;;;;;;9.32;5.05;;;18.00;99.90;;;;;;5123159;28;20171;-69
2021/08/19 04:12:44;;;;;;;6.38;4.43;;;18.00;99.90;;;;;;5122597;28;20202;-69
2021/08/19 04:15:10;;;;;;;10.20;4.97;;;18.00;99.90;;;;;;5107217;28;20599;-69
2021/08/19 04:17:37;;;;;;;11.45;5.57;;;17.90;99.90;;;;;;5105822;28;20164;-69
2021/08/19 04:20:04;;;;;;;7.72;4.22;;;18.00;99.90;;;;;;5122071;28;20159;-68
2021/08/19 04:22:30;;;;;;;10.80;4.85;;;18.00;99.90;;;;;;5106962;28;20164;-68
2021/08/19 04:24:55;;;;;;;7.30;4.80;;;17.90;99.90;;;;;;5106756;28;20159;-68
2021/08/19 04:27:21;;;;;;;9.80;4.45;;;18.00;99.90;;;;;;5107246;28;20155;-68
2021/08/19 04:29:47;;;;;;;8.57;5.50;;;17.80;99.90;;;;;;5104107;28;20644;-68
2021/08/19 04:32:12;;;;;;;12.98;5.10;;;17.80;99.90;;;;;;5106473;28;20243;-68
2021/08/19 04:34:38;;;;;;;9.50;5.88;;;17.70;99.90;;;;;;5106605;28;20250;-68
2021/08/19 04:37:04;;;;;;;9.25;4.85;;;17.60;99.90;;;;;;5106921;28;20163;-68
2021/08/19 04:39:30;;;;;;;11.52;4.95;;;17.80;99.90;;;;;;5104275;28;20175;-69
2021/08/19 04:41:55;;;;;;;11.52;4.85;;;17.80;99.90;;;;;;5122579;28;20782;-68
2021/08/19 04:44:21;;;;;;;9.32;5.82;;;18.00;99.90;;;;;;5106615;28;20159;-68
2021/08/19 04:46:47;;;;;;;9.75;5.18;;;17.90;99.90;;;;;;5106734;28;20508;-69
2021/08/19 04:49:12;;;;;;;8.15;5.38;;;18.00;99.90;;;;;;5104180;28;20227;-69
2021/08/19 04:51:38;;;;;;;10.90;5.03;;;18.00;99.90;;;;;;5106313;28;20177;-69
2021/08/19 04:54:05;;;;;;;6.88;5.07;;;17.90;99.90;;;;;;5106599;28;20190;-69
2021/08/19 04:56:37;;;;;;;11.07;5.15;;;17.90;99.90;;;;;;5121906;28;20160;-69
2021/08/19 04:59:07;;;;;;;7.70;4.68;;;17.90;99.90;;;;;;5103658;28;20163;-69
2021/08/19 05:01:34;;;;;;;8.50;5.03;;;17.90;99.90;;;;;;5106007;28;20168;-69
2021/08/19 05:04:00;;;;;;;9.63;4.82;;;17.90;99.90;;;;;;5106107;28;20718;-69
2021/08/19 05:06:26;;;;;;;10.60;5.47;;;17.90;99.90;;;;;;5105773;28;20171;-69
2021/08/19 05:08:53;;;;;;;8.27;5.32;;;17.90;99.90;;;;;;5103824;28;20214;-69
2021/08/19 05:11:20;;;;;;;10.40;6.07;;;18.00;99.90;;;;;;5106092;28;20230;-69
2021/08/19 05:13:45;;;;;;;12.60;5.47;;;18.10;99.90;;;;;;5105639;28;20202;-69
2021/08/19 05:16:11;;;;;;;8.70;5.13;;;18.00;99.90;;;;;;5106352;28;20163;-69
2021/08/19 05:18:38;;;;;;;12.93;5.55;;;18.00;99.90;;;;;;5103471;28;20163;-69
2021/08/19 05:21:04;;;;;;;8.50;5.20;;;17.90;99.90;;;;;;5121684;28;20167;-69
2021/08/19 05:23:30;;;;;;;8.15;4.93;;;17.80;99.90;;;;;;5106122;28;20166;-69
2021/08/19 05:25:55;;;;;;;8.82;4.25;;;17.90;99.90;;;;;;5105960;28;20166;-69
2021/08/19 05:28:21;;;;;;;5.85;5.22;;;17.80;99.90;;;;;;5103108;28;20167;-69
2021/08/19 05:30:46;;;;;;;10.23;5.15;;;17.80;99.90;;;;;;5106117;28;20163;-69
2021/08/19 05:33:12;;;;;;;7.97;4.63;;;17.70;99.90;;;;;;5105774;28;20163;-69
2021/08/19 05:35:38;;;;;;;8.52;4.25;;;17.60;99.90;;;;;;5105068;28;20203;-69
2021/08/19 05:38:03;;;;;;;8.65;4.60;;;17.70;99.90;;;;;;5103384;28;20287;-69
2021/08/19 05:40:29;;;;;;;10.07;5.07;;;17.60;99.90;;;;;;5105442;28;20242;-69
2021/08/19 05:42:55;;;;;;;11.30;4.57;;;17.70;99.90;;;;;;5105354;28;20226;-69
2021/08/19 05:45:20;;;;;;;6.15;4.28;;;17.80;99.90;;;;;;5121624;28;20163;-69
2021/08/19 05:47:46;;;;;;;7.68;4.70;;;17.80;99.90;;;;;;5103190;28;20172;-69
2021/08/19 05:50:11;;;;;;;6.15;3.90;;;17.70;99.90;;;;;;5106112;28;20730;-69
2021/08/19 05:52:38;;;;;;;15.10;4.68;;;17.90;99.90;;;;;;5105360;28;20167;-70
2021/08/19 05:55:04;;;;;;;8.23;4.45;;;17.80;99.90;;;;;;5105813;28;20187;-69
2021/08/19 05:57:30;;;;;;;7.43;4.28;;;17.80;99.90;;;;;;5104867;28;20155;-70
2021/08/19 05:59:56;;;;;;;7.50;4.03;;;17.90;99.90;;;;;;5103702;28;20190;-69
2021/08/19 06:02:21;;;;;;;7.13;4.47;;;17.80;99.90;;;;;;5105596;28;20168;-69
2021/08/19 06:04:47;;;;;;;11.57;4.25;;;17.90;99.90;;;;;;5105926;28;20552;-70
2021/08/19 06:07:13;;;;;;;12.27;4.55;;;18.20;99.90;;;;;;5105551;28;20211;-69
2021/08/19 06:09:38;;;;;;;7.53;4.63;;;18.20;99.90;;;;;;5118613;28;20171;-69
2021/08/19 06:12:04;;;;;;;7.22;5.07;;;18.40;99.90;;;;;;5105469;28;20629;-69
2021/08/19 06:14:30;;;;;;;9.68;4.63;;;18.20;99.90;;;;;;5105281;28;20175;-70
2021/08/19 06:16:56;;;;;;;7.10;4.80;;;18.20;99.90;;;;;;5105751;28;20170;-69
2021/08/19 06:19:22;;;;;;;6.68;4.47;;;18.10;99.90;;;;;;5103083;28;20179;-69
2021/08/19 06:21:47;;;;;;;8.48;4.50;;;18.00;99.90;;;;;;5105594;28;20224;-70
2021/08/19 06:24:13;;;;;;;6.93;4.20;;;17.80;99.90;;;;;;5105616;28;20183;-70
2021/08/19 06:26:39;;;;;;;7.90;4.35;;;17.70;99.90;;;;;;5105473;28;20159;-69
2021/08/19 06:29:04;;;;;;;7.75;4.10;;;17.80;99.90;;;;;;5102677;28;20183;-70
2021/08/19 06:31:30;;;;;;;10.02;4.32;;;17.80;99.90;;;;;;5105155;28;20175;-69
2021/08/19 06:33:56;;;;;;;5.30;4.10;;;17.80;99.90;;;;;;5105431;28;20183;-69
2021/08/19 06:36:21;;;;;;;7.97;3.72;;;17.80;99.90;;;;;;5105432;28;20170;-69
2021/08/19 06:38:52;;;;;;;5.15;3.78;;;17.90;99.90;;;;;;5103032;28;20155;-70
2021/08/19 06:41:21;;;;;;;8.48;4.05;;;17.80;99.90;;;;;;5105306;28;20152;-69
2021/08/19 06:43:47;;;;;;;6.95;4.18;;;17.90;99.90;;;;;;5104902;28;20175;-69
2021/08/19 06:46:13;;;;;;;8.27;3.95;;;17.90;99.90;;;;;;5105456;28;20166;-69
2021/08/19 06:48:38;;;;;;;8.98;4.40;;;17.90;99.90;;;;;;5105628;28;20579;-69
2021/08/19 06:51:04;;;;;;;10.10;3.78;;;18.00;99.90;;;;;;5109026;28;20171;-69
2021/08/19 06:53:30;;;;;;;7.55;4.25;;;17.90;99.90;;;;;;5124396;28;20167;-69
2021/08/19 06:55:55;;;;;;;8.88;4.03;;;18.00;99.90;;;;;;5108824;28;20247;-69
2021/08/19 06:58:21;;;;;;;10.68;4.60;;;18.10;99.90;;;;;;5106186;28;20235;-69
2021/08/19 07:00:47;;;;;;;7.00;3.45;;;18.00;99.90;;;;;;5108874;28;20183;-69
2021/08/19 07:03:16;;;;;;;9.70;3.17;;;17.90;99.90;;;;;;5108573;28;20182;-69
2021/08/19 07:05:43;;;;;;;9.35;3.40;;;18.00;99.90;;;;;;5108764;28;20242;-69
2021/08/19 07:08:09;;;;;;;6.93;3.60;;;17.90;99.90;;;;;;5105804;28;20218;-69
2021/08/19 07:10:34;;;;;;;10.27;4.18;;;18.00;99.90;;;;;;5108471;28;20163;-69
2021/08/19 07:13:00;;;;;;;12.30;3.58;;;18.20;99.90;;;;;;5107763;28;20198;-69
2021/08/19 07:15:27;;;;;;;8.65;3.58;;;18.20;99.90;;;;;;5108349;28;20248;-69
2021/08/19 07:17:53;;;;;;;8.40;3.00;;;18.40;99.90;;;;;;5121346;28;20220;-69
2021/08/19 07:20:19;;;;;;;8.07;3.83;;;18.30;99.90;;;;;;5108604;28;20180;-69
2021/08/19 07:22:45;;;;;;;8.23;3.83;;;18.30;99.90;;;;;;5108059;28;20167;-69
2021/08/19 07:25:13;;;;;;;8.32;3.80;;;18.30;99.90;;;;;;5108157;28;20164;-69
2021/08/19 07:27:39;;;;;;;7.20;3.03;;;18.20;99.90;;;;;;5121883;28;20159;-69
2021/08/19 07:30:05;;;;;;;9.02;3.67;;;18.30;99.90;;;;;;5107391;28;20171;-68
2021/08/19 07:32:31;;;;;;;7.63;3.42;;;18.40;99.90;;;;;;5107536;28;20308;-69
2021/08/19 07:34:57;;;;;;;9.60;3.17;;;18.40;99.90;;;;;;5107879;28;20199;-69
2021/08/19 07:37:22;;;;;;;6.20;3.28;;;18.30;99.90;;;;;;5108106;28;20164;-69
2021/08/19 07:39:48;;;;;;;8.23;3.33;;;18.40;99.90;;;;;;5121411;28;20218;-68
2021/08/19 07:42:14;;;;;;;7.20;3.13;;;18.40;99.90;;;;;;5107564;28;20227;-69
2021/08/19 07:44:39;;;;;;;13.65;3.22;;;18.40;99.90;;;;;;5107620;28;20179;-68
2021/08/19 07:47:05;;;;;;;5.65;2.85;;;18.40;99.90;;;;;;5108080;28;20633;-69
2021/08/19 07:49:31;;;;;;;7.93;3.72;;;18.60;99.90;;;;;;5104038;28;20163;-69
2021/08/19 07:51:57;;;;;;;7.78;2.95;;;18.80;99.90;;;;;;5107547;28;20194;-68
2021/08/19 07:54:22;;;;;;;4.10;2.88;;;19.00;99.90;;;;;;5107276;28;20217;-68
2021/08/19 07:56:48;;;;;;;7.75;3.05;;;19.10;99.90;;;;;;5122922;28;20174;-69
2021/08/19 07:59:14;;;;;;;9.90;2.60;;;19.10;99.90;;;;;;5103835;28;20167;-68
2021/08/19 08:01:39;;;;;;;7.07;2.65;;;19.30;99.90;;;;;;5107158;28;20225;-68
2021/08/19 08:04:08;;;;;;;7.00;3.25;;;19.20;99.90;;;;;;5107351;28;20254;-68
2021/08/19 08:06:34;;;;;;;10.18;3.20;;;19.00;99.90;;;;;;5107083;28;20633;-69
2021/08/19 08:09:00;;;;;;;8.00;2.90;;;19.10;99.90;;;;;;5104536;28;20250;-68
2021/08/19 08:11:26;;;;;;;6.85;2.88;;;19.00;99.90;;;;;;5106710;28;20183;-68
2021/08/19 08:13:52;;;;;;;6.85;2.83;;;19.20;99.90;;;;;;5122641;28;20619;-68
2021/08/19 08:16:18;;;;;;;7.10;2.50;;;19.40;99.90;;;;;;5123241;28;20198;-68
2021/08/19 08:18:43;;;;;;;12.60;2.58;;;19.40;99.90;;;;;;5104601;28;20161;-68
2021/08/19 08:21:13;;;;;;;2.78;2.15;;;19.50;99.90;;;;;;5107371;28;20159;-69
2021/08/19 08:23:39;;;;;;;3.97;2.15;;;19.50;99.90;;;;;;5122714;28;20167;-69
2021/08/19 08:26:05;;;;;;;3.35;1.73;;;19.50;99.90;;;;;;5107180;28;20164;-69
2021/08/19 08:28:31;;;;;;;3.22;1.52;;;19.50;99.90;;;;;;5104141;28;20487;-68
2021/08/19 08:31:01;;;;;;;2.58;1.98;;;19.50;99.90;;;;;;5122704;28;20514;-69
2021/08/19 08:33:27;;;;;;;3.63;1.77;;;19.40;99.90;;;;;;5105511;28;20152;-69
2021/08/19 08:35:53;;;;;;;3.72;1.70;;;19.40;99.90;;;;;;5122104;28;20191;-69
2021/08/19 08:38:21;;;;;;;4.97;1.42;;;19.30;99.90;;;;;;5104215;28;20651;-69
2021/08/19 08:40:49;;;;;;;8.20;1.73;;;19.40;99.90;;;;;;5106737;28;20183;-69
2021/08/19 08:43:16;;;;;;;4.32;1.70;;;19.50;99.90;;;;;;5106520;28;20195;-69
2021/08/19 08:45:45;;;;;;;4.60;1.98;;;19.50;99.90;;;;;;5122398;28;20170;-69
2021/08/19 08:48:16;;;;;;;7.50;1.75;;;19.50;99.90;;;;;;5104025;28;20664;-68
2021/08/19 08:50:45;;;;;;;5.25;2.13;;;19.50;99.90;;;;;;5106789;28;20210;-68
2021/08/19 08:53:12;;;;;;;6.57;2.47;;;19.50;99.90;;;;;;5106189;28;20178;-69
2021/08/19 08:55:38;;;;;;;5.22;2.30;;;19.20;99.90;;;;;;5121900;28;20232;-69
2021/08/19 08:58:04;;;;;;;6.03;2.05;;;19.10;99.90;;;;;;5103776;28;20171;-69
2021/08/19 09:00:31;;;;;;;5.50;2.33;;;19.10;99.90;;;;;;5106180;28;20168;-68
2021/08/19 09:02:56;;;;;;;4.25;1.88;;;19.00;99.90;;;;;;5106278;28;20261;-69
2021/08/19 09:05:37;;;;;;;9.10;2.42;;;19.00;99.90;;;;;;5106621;28;20160;-68
2021/08/19 09:08:02;;;;;;;5.40;2.83;;;19.00;99.90;;;;;;5103871;28;20339;-69
2021/08/19 09:10:31;;;;;;;3.05;2.05;;;18.90;99.90;;;;;;5105835;28;20167;-69
2021/08/19 09:13:05;;;;;;;6.72;2.03;;;19.00;99.90;;;;;;5105519;28;20175;-69
2021/08/19 09:15:31;;;;;;;6.63;2.42;;;18.80;99.90;;;;;;5105972;28;20682;-68
2021/08/19 09:17:57;;;;;;;5.45;2.50;;;18.90;99.90;;;;;;5119356;28;20155;-68
2021/08/19 09:20:43;;;;;;;7.18;2.33;;;18.70;99.90;;;;;;5106391;28;20557;-68
2021/08/19 09:23:15;;;;;;;10.20;2.60;;;18.60;99.90;;;;;;5105801;28;20171;-69
2021/08/19 09:25:42;;;;;;;11.57;2.97;;;18.70;99.90;;;;;;5105853;28;20164;-68
2021/08/19 09:28:14;;;;;;;4.45;2.40;;;18.60;99.90;;;;;;5103028;28;20167;-68
2021/08/19 09:31:01;;;;;;;12.18;2.67;;;18.70;99.90;;;;;;5105904;28;20166;-68
2021/08/19 09:33:29;;;;;;;6.60;2.53;;;18.60;99.90;;;;;;5090198;28;20183;-69
2021/08/19 09:35:58;;;;;;;6.85;2.00;;;18.80;99.90;;;;;;5106044;28;20163;-69
2021/08/19 09:38:26;;;;;;;3.70;2.13;;;19.00;99.90;;;;;;5118615;28;20535;-69
2021/08/19 09:41:19;;;;;;;3.75;1.90;;;19.10;99.90;;;;;;5105578;28;20158;-69
2021/08/19 09:43:50;;;;;;;11.50;2.47;;;19.30;99.90;;;;;;5105034;28;20171;-69
2021/08/19 09:46:31;;;;;;;4.90;2.17;;;19.40;99.90;;;;;;5105870;28;20159;-69
2021/08/19 09:49:00;;;;;;;6.47;2.33;;;19.40;99.90;;;;;;5103136;28;20163;-68
2021/08/19 09:51:26;;;;;;;5.43;1.50;;;19.60;99.90;;;;;;5105188;28;20190;-68
2021/08/19 09:53:55;;;;;;;4.43;1.67;;;19.90;99.90;;;;;;5105388;28;20206;-68
2021/08/19 09:56:37;;;;;;;3.13;1.63;;;19.90;99.90;;;;;;5105621;28;20163;-69
2021/08/19 09:59:23;;;;;;;5.07;1.52;;;19.80;99.90;;;;;;5102882;28;20167;-68
2021/08/19 10:01:51;;;;;;;3.05;1.30;;;19.70;99.90;;;;;;5105393;28;20165;-69
2021/08/19 10:04:17;;;;;;;2.97;1.50;;;19.70;99.90;;;;;;5104830;28;20159;-69
2021/08/19 10:06:44;;;;;;;4.40;1.60;;;19.60;99.90;;;;;;5121145;28;20390;-69
2021/08/19 10:09:10;;;;;;;2.95;1.70;;;19.60;99.90;;;;;;5102929;28;20242;-68
2021/08/19 10:11:36;;;;;;;2.90;1.48;;;19.60;99.90;;;;;;5105316;28;20164;-68
2021/08/19 10:14:02;;;;;;;2.35;1.35;;;19.60;99.90;;;;;;5105304;28;20190;-69
2021/08/19 10:16:33;;;;;;;4.55;1.95;;;19.80;99.90;;;;;;5105143;28;20700;-69
2021/08/19 10:19:05;;;;;;;3.08;1.70;;;19.80;99.90;;;;;;5103013;28;20285;-68
2021/08/19 10:21:31;;;;;;;2.08;1.02;;;19.80;99.90;;;;;;5120767;28;20231;-68
2021/08/19 10:24:00;;;;;;;3.75;1.73;;;20.00;99.90;;;;;;5108590;28;20185;-68
2021/08/19 10:26:26;;;;;;;2.88;1.48;;;20.00;99.90;;;;;;5124810;28;20500;-68
2021/08/19 10:28:59;;;;;;;1.35;1.10;;;20.00;99.90;;;;;;5122565;28;20167;-68
2021/08/19 10:31:38;;;;;;;1.60;1.35;;;20.10;99.90;;;;;;5109405;28;20570;-68
2021/08/19 10:34:04;;;;;;;4.53;1.45;;;20.20;99.90;;;;;;5124989;28;20183;-68
2021/08/19 10:36:30;;;;;;;1.52;1.10;;;20.00;99.90;;;;;;5109277;28;20159;-68
2021/08/19 10:39:20;;;;;;;6.30;1.40;;;19.70;99.90;;;;;;5105915;28;20470;-68
2021/08/19 10:41:47;;;;;;;4.30;1.20;;;20.00;99.90;;;;;;5108908;28;20156;-69
2021/08/19 10:44:14;;;;;;;3.28;1.08;;;19.90;99.90;;;;;;5124631;28;20195;-68
2021/08/19 10:46:50;;;;;;;2.42;1.20;;;19.70;99.90;;;;;;5124893;28;20167;-68
2021/08/19 10:49:37;;;;;;;3.30;1.67;;;19.80;99.90;;;;;;5106552;28;20253;-68
2021/08/19 10:52:09;;;;;;;2.58;1.20;;;19.70;99.90;;;;;;5108973;28;20167;-68
2021/08/19 10:54:40;;;;;;;2.67;1.02;;;19.70;99.90;;;;;;5108804;28;20246;-68
2021/08/19 10:57:28;;;;;;;2.67;1.50;;;19.60;99.90;;;;;;5108817;28;20334;-68
2021/08/19 10:59:56;;;;;;;3.60;1.48;;;19.60;99.90;;;;;;5106580;28;20633;-68
2021/08/19 11:02:41;;;;;;;4.20;1.50;;;19.70;99.90;;;;;;5108670;28;20163;-68
2021/08/19 11:05:08;;;;;;;5.28;1.45;;;19.90;99.90;;;;;;5108917;28;20163;-69
2021/08/19 11:07:50;;;;;;;17.27;1.75;;;19.80;99.90;;;;;;5123186;28;20253;-69
2021/08/19 11:10:36;;;;;;;3.83;1.30;;;20.10;99.90;;;;;;5108554;28;20163;-68
2021/08/19 11:13:14;;;;;;;3.13;1.40;;;20.20;99.90;;;;;;5108308;28;20168;-68
2021/08/19 11:15:49;;;;;;;2.20;1.50;;;20.10;99.90;;;;;;5108467;28;20190;-68
2021/08/19 11:18:28;;;;;;;4.20;1.50;;;20.20;99.90;;;;;;5106013;28;20624;-68
2021/08/19 11:20:55;;;;;;;2.25;1.38;;;20.10;99.90;;;;;;5108627;28;20173;-68
2021/08/19 11:23:33;;;;;;;3.25;1.60;;;20.10;99.90;;;;;;5108246;28;20220;-68
2021/08/19 11:26:19;;;;;;;4.97;1.63;;;20.00;99.90;;;;;;5108427;28;20156;-68
2021/08/19 11:28:48;;;;;;;3.92;1.58;;;20.20;99.90;;;;;;5105420;28;20199;-68
2021/08/19 11:31:19;;;;;;;5.03;1.73;;;20.10;99.90;;;;;;5108333;28;20507;-68
2021/08/19 11:33:46;;;;;;;3.25;1.73;;;20.10;99.90;;;;;;5106523;28;20250;-68
2021/08/19 11:36:13;;;;;;;9.95;1.50;;;20.10;99.90;;;;;;5108372;28;20155;-68
2021/08/19 11:38:41;;;;;;;3.33;1.67;;;20.00;99.90;;;;;;5105497;28;20160;-68
2021/08/19 11:41:16;;;;;;;4.45;1.80;;;19.70;99.90;;;;;;5108080;28;20223;-68
2021/08/19 11:43:43;;;;;;;8.05;2.38;;;19.60;99.90;;;;;;5107415;28;20242;-68
2021/08/19 11:46:23;;;;;;;3.15;2.08;;;19.50;99.90;;;;;;5108209;28;20155;-68
2021/08/19 11:48:53;;;;;;;4.53;2.13;;;19.40;99.90;;;;;;5105501;28;20164;-68
2021/08/19 11:51:36;;;;;;;4.15;1.92;;;19.60;99.90;;;;;;5107937;28;20170;-68
2021/08/19 11:54:20;;;;;;;3.00;2.17;;;19.70;99.90;;;;;;5123413;28;20285;-69
2021/08/19 11:56:47;;;;;;;3.88;1.63;;;19.90;99.90;;;;;;5107514;28;20242;-69
2021/08/19 11:59:17;;;;;;;5.68;2.03;;;20.00;99.90;;;;;;5104909;28;20220;-68
2021/08/19 12:01:54;;;;;;;3.97;1.70;;;20.10;99.90;;;;;;5106990;28;20152;-68
2021/08/19 12:04:33;;;;;;;4.68;1.77;;;20.20;99.90;;;;;;5106875;28;20173;-68
2021/08/19 12:07:01;;;;;;;4.60;1.85;;;20.20;99.90;;;;;;5107130;28;20159;-68
2021/08/19 12:09:29;;;;;;;4.78;1.92;;;20.20;99.90;;;;;;5104759;28;20241;-68
2021/08/19 12:11:55;;;;;;;4.22;1.50;;;20.30;99.90;;;;;;5107116;28;20163;-68
2021/08/19 12:14:26;;;;;;;6.70;1.75;;;20.20;99.90;;;;;;5107014;28;20215;-68
2021/08/19 12:16:54;;;;;;;3.38;2.03;;;20.50;99.90;;;;;;5107460;28;20216;-68
2021/08/19 12:19:27;;;;;;;2.38;1.35;;;20.60;99.90;;;;;;5104666;28;20159;-68
2021/08/19 12:21:53;;;;;;;6.18;2.22;;;21.00;99.90;;;;;;5107056;28;20528;-68
2021/08/19 12:24:22;;;;;;;4.00;1.63;;;21.20;99.90;;;;;;5122970;28;20171;-68
2021/08/19 12:27:11;;;;;;;4.18;1.73;;;21.10;99.90;;;;;;5107260;28;20167;-68
2021/08/19 12:29:50;;;;;;;6.25;2.10;;;21.00;99.90;;;;;;5103751;28;20250;-68
2021/08/19 12:32:22;;;;;;;5.82;1.90;;;21.10;99.90;;;;;;5106880;28;20167;-68
2021/08/19 12:35:09;;;;;;;3.67;1.73;;;21.00;99.90;;;;;;5122984;28;20225;-68
2021/08/19 12:37:37;;;;;;;4.57;1.40;;;21.30;99.90;;;;;;5105564;28;20159;-68
2021/08/19 12:40:14;;;;;;;4.68;1.92;;;21.40;99.90;;;;;;5121280;28;20639;-68
2021/08/19 12:42:43;;;;;;;2.85;1.50;;;21.60;99.90;;;;;;5105675;28;20171;-68
2021/08/19 12:45:22;;;;;;;5.43;2.45;;;21.60;99.90;;;;;;5105486;28;20523;-68
2021/08/19 12:47:59;;;;;;;5.28;2.30;;;21.20;99.90;;;;;;5119920;28;20380;-68